Time;durP1;ratioP1;P1;durP2;ratioP2;P2;SDS_P1;SDS_P2;PMS_P1;PMS_P2;Temp;Humidity;BMP_temperature;BMP_pressure;BME280_temperature;BME280_humidity;BME280_pressure;Samples;Min_cycle;Max_cycle;Signal;HPM_P1;HPM_P2
2021/08/30 04:01:07;;;;;;;22.93;20.17;;;15.40;99.90;;;;;;5688866;23;20535;-64
2021/08/30 04:03:35;;;;;;;24.30;19.67;;;15.30;99.90;;;;;;4995485;28;20528;-64
2021/08/30 04:06:03;;;;;;;25.00;20.80;;;15.30;99.90;;;;;;4995140;28;20450;-64
2021/08/30 04:08:31;;;;;;;23.80;19.20;;;15.30;99.90;;;;;;4996288;28;20500;-64
2021/08/30 04:10:59;;;;;;;26.37;20.20;;;15.30;99.90;;;;;;4998501;28;20469;-63
2021/08/30 04:13:26;;;;;;;24.90;19.80;;;15.30;99.90;;;;;;4998550;28;20521;-64
2021/08/30 04:15:53;;;;;;;24.10;19.93;;;15.30;99.90;;;;;;4999417;28;20444;-64
2021/08/30 04:18:21;;;;;;;24.67;20.27;;;15.20;99.90;;;;;;4998791;28;20450;-64
2021/08/30 04:20:48;;;;;;;22.23;19.33;;;15.30;99.90;;;;;;4999868;28;20826;-65
2021/08/30 04:23:15;;;;;;;22.77;18.97;;;15.40;99.90;;;;;;5008544;28;20453;-64
2021/08/30 04:25:42;;;;;;;27.40;20.77;;;15.40;99.90;;;;;;5007623;28;20479;-64
2021/08/30 04:28:08;;;;;;;24.87;18.80;;;15.40;99.90;;;;;;5006523;28;20461;-64
2021/08/30 04:30:36;;;;;;;24.10;20.10;;;15.40;99.90;;;;;;5006885;28;20863;-65
2021/08/30 04:33:08;;;;;;;24.60;19.50;;;15.40;99.90;;;;;;4999674;28;20461;-65
2021/08/30 04:35:37;;;;;;;25.80;20.80;;;15.40;99.90;;;;;;4999746;28;20974;-64
2021/08/30 04:38:04;;;;;;;27.47;19.60;;;15.40;99.90;;;;;;4999390;28;20971;-64
2021/08/30 04:40:33;;;;;;;23.53;19.40;;;15.40;99.90;;;;;;4998592;28;20503;-64
2021/08/30 04:43:00;;;;;;;25.20;19.33;;;15.50;99.90;;;;;;4998738;28;20461;-64
2021/08/30 04:45:27;;;;;;;24.30;19.00;;;15.50;99.90;;;;;;4998319;28;20462;-64
2021/08/30 04:47:53;;;;;;;23.07;19.23;;;15.50;99.90;;;;;;4998301;28;20458;-64
2021/08/30 04:50:20;;;;;;;23.90;18.57;;;15.50;99.90;;;;;;4998231;28;20454;-64
2021/08/30 04:52:48;;;;;;;24.17;19.83;;;15.50;99.90;;;;;;4997915;28;20457;-65
2021/08/30 04:55:15;;;;;;;24.50;18.90;;;15.60;99.90;;;;;;4999337;28;20795;-63
2021/08/30 04:57:42;;;;;;;21.53;17.50;;;15.50;99.90;;;;;;4998532;28;20995;-64
2021/08/30 05:00:10;;;;;;;21.37;17.93;;;15.50;99.90;;;;;;4996792;28;20489;-63
2021/08/30 05:02:37;;;;;;;21.43;17.33;;;15.50;99.90;;;;;;4997795;28;20830;-65
2021/08/30 05:05:04;;;;;;;23.37;17.40;;;15.50;99.90;;;;;;4997909;28;20450;-64
2021/08/30 05:07:31;;;;;;;25.40;18.83;;;15.50;99.90;;;;;;4999121;28;20453;-65
2021/08/30 05:09:59;;;;;;;24.67;18.23;;;15.50;99.90;;;;;;4997906;28;20454;-64
2021/08/30 05:12:27;;;;;;;25.77;17.33;;;15.60;99.90;;;;;;4998244;28;20470;-63
2021/08/30 05:14:54;;;;;;;26.07;17.67;;;15.60;99.90;;;;;;4997393;28;20862;-64
2021/08/30 05:17:21;;;;;;;21.53;17.03;;;15.60;99.90;;;;;;4997812;28;20450;-63
2021/08/30 05:19:47;;;;;;;27.37;18.97;;;15.50;99.90;;;;;;4996343;28;20489;-63
2021/08/30 05:22:14;;;;;;;22.97;18.20;;;15.50;99.90;;;;;;4997294;28;20474;-63
2021/08/30 05:24:41;;;;;;;27.13;18.43;;;15.50;99.90;;;;;;4997465;28;20544;-64
2021/08/30 05:27:09;;;;;;;24.97;18.13;;;15.50;99.90;;;;;;4997455;28;20465;-64
2021/08/30 05:29:36;;;;;;;26.00;19.80;;;15.50;99.90;;;;;;4997398;28;20462;-64
2021/08/30 05:32:03;;;;;;;22.57;18.20;;;15.50;99.90;;;;;;4997440;28;20480;-64
2021/08/30 05:34:30;;;;;;;25.00;18.87;;;15.50;99.90;;;;;;4997358;28;20937;-64
2021/08/30 05:36:56;;;;;;;31.80;20.27;;;15.60;99.90;;;;;;4997160;28;20467;-65
2021/08/30 05:39:23;;;;;;;24.00;20.03;;;15.60;99.90;;;;;;4997625;28;20983;-64
2021/08/30 05:41:50;;;;;;;26.40;19.50;;;15.60;99.90;;;;;;4997381;28;20485;-64
2021/08/30 05:44:18;;;;;;;26.83;19.70;;;15.60;99.90;;;;;;4997579;28;20457;-63
2021/08/30 05:46:45;;;;;;;23.50;19.37;;;15.60;99.90;;;;;;4997308;28;20454;-65
2021/08/30 05:49:12;;;;;;;24.47;19.00;;;15.70;99.90;;;;;;4997385;28;20453;-63
2021/08/30 05:51:39;;;;;;;21.90;18.33;;;15.70;99.90;;;;;;4997002;28;20474;-64
2021/08/30 05:54:06;;;;;;;23.20;19.83;;;15.70;99.90;;;;;;4996875;28;20454;-64
2021/08/30 05:56:33;;;;;;;24.20;19.67;;;15.70;99.90;;;;;;4996691;28;20453;-63
2021/08/30 05:59:00;;;;;;;20.73;18.13;;;15.70;99.90;;;;;;4996293;28;20465;-66
2021/08/30 06:01:28;;;;;;;25.20;18.63;;;15.70;99.90;;;;;;4995981;28;20486;-66
2021/08/30 06:03:55;;;;;;;24.93;18.83;;;15.70;99.90;;;;;;4996052;28;20458;-67
2021/08/30 06:06:22;;;;;;;22.83;19.03;;;15.80;99.90;;;;;;4996070;28;20866;-66
2021/08/30 06:08:48;;;;;;;25.33;18.07;;;15.80;99.90;;;;;;4996647;28;20458;-66
2021/08/30 06:11:15;;;;;;;19.17;17.27;;;15.80;99.90;;;;;;4996472;28;20836;-67
2021/08/30 06:13:42;;;;;;;19.17;17.20;;;15.90;99.90;;;;;;4996332;28;20450;-67
2021/08/30 06:16:08;;;;;;;21.13;17.97;;;16.00;99.90;;;;;;4996240;28;20449;-66
2021/08/30 06:18:37;;;;;;;18.50;16.40;;;16.10;99.90;;;;;;4996205;28;20508;-67
2021/08/30 06:21:03;;;;;;;19.33;17.20;;;16.20;99.90;;;;;;4995883;28;21006;-66
2021/08/30 06:23:31;;;;;;;17.97;16.20;;;16.50;99.90;;;;;;4996419;28;20453;-67
2021/08/30 06:25:59;;;;;;;15.97;14.40;;;16.70;99.90;;;;;;4996291;28;20458;-66
2021/08/30 06:28:26;;;;;;;14.73;13.47;;;17.00;99.90;;;;;;4996388;28;20454;-67
2021/08/30 06:30:52;;;;;;;14.00;12.60;;;17.20;99.90;;;;;;4996445;28;20477;-68
2021/08/30 06:33:19;;;;;;;14.97;13.57;;;17.40;99.90;;;;;;4995795;28;20964;-68
2021/08/30 06:35:47;;;;;;;13.83;12.57;;;17.50;99.90;;;;;;4996017;28;20458;-67
2021/08/30 06:38:15;;;;;;;14.80;13.60;;;17.50;99.90;;;;;;4996274;28;20461;-67
2021/08/30 06:40:42;;;;;;;14.17;12.87;;;17.50;99.90;;;;;;4996043;28;20846;-66
2021/08/30 06:43:09;;;;;;;14.53;13.27;;;17.50;99.90;;;;;;4995793;28;20465;-66
2021/08/30 06:45:35;;;;;;;13.43;12.33;;;17.40;99.90;;;;;;4995920;28;20457;-66
2021/08/30 06:48:02;;;;;;;14.57;13.30;;;17.40;99.90;;;;;;4995920;28;20454;-66
2021/08/30 06:50:29;;;;;;;15.20;14.00;;;17.30;99.90;;;;;;4995624;28;20481;-67
2021/08/30 06:52:57;;;;;;;14.33;13.13;;;17.20;99.90;;;;;;4995349;28;20458;-67
2021/08/30 06:55:23;;;;;;;15.00;13.70;;;17.30;99.90;;;;;;4995678;28;20525;-67
2021/08/30 06:57:50;;;;;;;14.90;13.70;;;17.30;99.90;;;;;;4996298;28;20457;-67
2021/08/30 07:00:18;;;;;;;15.70;14.20;;;17.30;99.90;;;;;;4994989;28;20461;-67
2021/08/30 07:02:45;;;;;;;15.27;13.90;;;17.30;99.90;;;;;;4995796;28;20541;-67
2021/08/30 07:05:12;;;;;;;15.53;14.10;;;17.30;99.90;;;;;;4995649;28;20462;-67
2021/08/30 07:07:39;;;;;;;15.57;14.27;;;17.20;99.90;;;;;;4995926;28;20457;-67
2021/08/30 07:10:08;;;;;;;14.97;13.67;;;17.20;99.90;;;;;;4995434;28;20458;-66
2021/08/30 07:12:34;;;;;;;14.90;13.70;;;17.30;99.90;;;;;;4996384;28;20481;-66
2021/08/30 07:15:01;;;;;;;15.50;14.10;;;17.30;99.90;;;;;;4995435;28;20460;-67
2021/08/30 07:17:28;;;;;;;15.00;13.60;;;17.30;99.90;;;;;;4995618;28;20453;-67
2021/08/30 07:19:55;;;;;;;16.33;14.83;;;17.30;99.90;;;;;;4996117;28;20822;-68
2021/08/30 07:22:21;;;;;;;16.10;14.50;;;17.10;99.90;;;;;;4994712;28;20488;-67
2021/08/30 07:24:48;;;;;;;15.97;14.67;;;17.10;99.90;;;;;;4995464;28;20457;-68
2021/08/30 07:27:16;;;;;;;15.80;14.40;;;17.00;99.90;;;;;;4995973;28;20453;-66
2021/08/30 07:29:43;;;;;;;16.03;14.53;;;16.90;99.90;;;;;;4995195;28;20454;-68
2021/08/30 07:32:10;;;;;;;15.97;14.37;;;16.90;99.90;;;;;;4995010;28;20484;-66
2021/08/30 07:34:37;;;;;;;16.60;14.90;;;16.90;99.90;;;;;;4995231;28;20460;-65
2021/08/30 07:37:04;;;;;;;16.27;14.87;;;16.90;99.90;;;;;;4995294;28;20460;-67
2021/08/30 07:39:31;;;;;;;15.50;14.17;;;16.90;99.90;;;;;;4995228;28;20469;-66
2021/08/30 07:41:57;;;;;;;15.73;14.33;;;16.90;99.90;;;;;;4995156;28;20486;-66
2021/08/30 07:44:26;;;;;;;14.97;13.40;;;17.00;99.90;;;;;;4997068;28;20453;-67
2021/08/30 07:46:53;;;;;;;15.43;14.13;;;17.00;99.90;;;;;;4999393;28;20457;-67
2021/08/30 07:49:20;;;;;;;14.77;13.47;;;17.00;99.90;;;;;;4999602;28;20461;-67
2021/08/30 07:51:47;;;;;;;13.93;12.73;;;16.90;99.90;;;;;;4999513;28;20477;-68
2021/08/30 07:54:14;;;;;;;14.10;12.97;;;16.90;99.90;;;;;;4999808;28;20453;-66
2021/08/30 07:56:41;;;;;;;15.40;14.10;;;16.80;99.90;;;;;;5000427;28;20457;-67
2021/08/30 07:59:10;;;;;;;13.50;12.30;;;16.80;99.90;;;;;;5000975;28;20457;-67
2021/08/30 08:01:38;;;;;;;17.60;14.17;;;16.80;99.90;;;;;;5000829;28;20482;-67
2021/08/30 08:04:05;;;;;;;13.80;12.70;;;16.70;99.90;;;;;;5000113;28;20453;-67
2021/08/30 08:06:32;;;;;;;15.20;12.80;;;16.70;99.90;;;;;;4999804;28;20457;-67
2021/08/30 08:09:00;;;;;;;13.57;12.37;;;16.70;99.90;;;;;;5000462;28;20523;-67
2021/08/30 08:11:27;;;;;;;14.30;13.00;;;16.70;99.90;;;;;;4999689;28;20461;-66
2021/08/30 08:13:53;;;;;;;13.50;12.30;;;16.70;99.90;;;;;;4999802;28;20464;-67
2021/08/30 08:16:20;;;;;;;13.30;12.20;;;16.70;99.90;;;;;;4999635;28;20815;-67
2021/08/30 08:18:48;;;;;;;13.07;11.77;;;16.60;99.90;;;;;;5000284;28;20479;-68
2021/08/30 08:21:15;;;;;;;12.13;10.93;;;16.60;99.90;;;;;;4999338;28;20976;-66
2021/08/30 08:23:42;;;;;;;12.53;11.50;;;16.60;99.90;;;;;;4999826;28;20516;-66
2021/08/30 08:26:09;;;;;;;12.20;11.07;;;16.50;99.90;;;;;;4999529;28;20453;-66
2021/08/30 08:28:36;;;;;;;9.57;8.77;;;16.50;99.90;;;;;;4999232;28;20948;-67
2021/08/30 08:31:02;;;;;;;11.17;10.27;;;16.60;99.90;;;;;;4999991;28;20561;-66
2021/08/30 08:33:29;;;;;;;11.07;10.17;;;16.60;99.90;;;;;;5000519;28;20941;-67
2021/08/30 08:35:57;;;;;;;12.77;11.50;;;16.50;99.90;;;;;;5000019;28;20458;-66
2021/08/30 08:38:24;;;;;;;13.23;12.07;;;16.60;99.90;;;;;;4998966;28;20461;-66
2021/08/30 08:40:51;;;;;;;14.10;12.70;;;16.50;99.90;;;;;;4998738;28;20484;-67
2021/08/30 08:43:20;;;;;;;12.37;11.33;;;16.50;99.90;;;;;;4997882;28;20458;-65
2021/08/30 08:45:49;;;;;;;12.03;11.03;;;16.60;99.90;;;;;;4999103;28;20461;-67
2021/08/30 08:48:16;;;;;;;11.73;10.63;;;16.70;99.90;;;;;;4998469;28;20461;-67
2021/08/30 08:50:44;;;;;;;11.83;10.80;;;17.10;99.90;;;;;;4998486;28;20473;-67
2021/08/30 08:53:12;;;;;;;9.93;8.93;;;17.80;99.90;;;;;;4998379;28;20449;-66
2021/08/30 08:55:39;;;;;;;10.03;9.23;;;18.20;99.90;;;;;;4998773;28;20460;-66
2021/08/30 08:58:10;;;;;;;10.53;9.73;;;18.50;99.90;;;;;;5007533;28;20449;-67
2021/08/30 09:00:38;;;;;;;11.27;10.17;;;18.50;99.90;;;;;;5000057;28;20481;-68
2021/08/30 09:03:13;;;;;;;11.50;10.60;;;18.50;99.90;;;;;;4998952;28;20458;-68
2021/08/30 09:05:40;;;;;;;10.93;10.03;;;18.70;99.90;;;;;;4998239;28;20786;-69
2021/08/30 09:08:07;;;;;;;10.30;9.50;;;18.90;99.90;;;;;;4998813;28;20504;-67
2021/08/30 09:10:42;;;;;;;10.80;9.90;;;19.20;99.90;;;;;;4998010;28;20482;-66
2021/08/30 09:13:09;;;;;;;10.27;9.47;;;19.40;99.90;;;;;;4997571;28;20500;-67
2021/08/30 09:15:42;;;;;;;11.53;10.33;;;19.30;99.90;;;;;;4997846;28;20461;-67
2021/08/30 09:18:11;;;;;;;12.00;11.00;;;19.20;99.90;;;;;;4997865;28;20918;-67
2021/08/30 09:20:38;;;;;;;11.30;10.30;;;19.10;99.90;;;;;;4997878;28;20474;-67
2021/08/30 09:23:14;;;;;;;12.83;11.67;;;19.00;99.90;;;;;;4997918;28;20901;-67
2021/08/30 09:25:42;;;;;;;12.57;11.37;;;18.80;99.90;;;;;;4997460;28;21043;-67
2021/08/30 09:28:09;;;;;;;12.90;11.70;;;18.60;99.90;;;;;;4997648;28;20454;-67
2021/08/30 09:30:36;;;;;;;12.77;11.57;;;18.40;99.90;;;;;;4998789;28;20478;-66
2021/08/30 09:33:03;;;;;;;13.20;12.10;;;18.30;99.90;;;;;;5003273;28;20454;-67
2021/08/30 09:35:30;;;;;;;14.00;12.80;;;18.10;99.90;;;;;;5001212;28;20461;-67
2021/08/30 09:37:57;;;;;;;13.90;12.60;;;17.90;99.90;;;;;;4999182;28;20797;-67
2021/08/30 09:40:27;;;;;;;15.23;13.87;;;17.70;99.90;;;;;;4996960;28;20461;-66
2021/08/30 09:42:57;;;;;;;15.57;14.13;;;17.60;99.90;;;;;;4996671;28;20492;-67
2021/08/30 09:45:26;;;;;;;14.50;13.20;;;17.50;99.90;;;;;;4996349;28;20442;-66
2021/08/30 09:47:58;;;;;;;16.80;15.30;;;17.40;99.90;;;;;;4996938;28;20942;-66
2021/08/30 09:50:29;;;;;;;15.33;13.83;;;17.40;99.90;;;;;;4996651;28;20468;-66
2021/08/30 09:52:56;;;;;;;15.90;14.50;;;17.40;99.90;;;;;;4996614;28;20890;-67
2021/08/30 09:55:23;;;;;;;15.00;13.20;;;17.50;99.90;;;;;;4996571;28;20845;-67
2021/08/30 09:57:52;;;;;;;13.17;12.03;;;17.60;99.90;;;;;;4997584;28;20457;-66
2021/08/30 10:00:21;;;;;;;13.37;12.17;;;17.60;99.90;;;;;;4996274;28;20462;-65
2021/08/30 10:02:52;;;;;;;15.23;12.70;;;17.40;99.90;;;;;;4996970;28;20465;-67
2021/08/30 10:05:19;;;;;;;14.87;13.67;;;17.40;99.90;;;;;;4996597;28;20510;-68
2021/08/30 10:07:47;;;;;;;15.40;14.00;;;17.50;99.90;;;;;;4995983;28;20477;-66
2021/08/30 10:10:14;;;;;;;15.23;13.20;;;17.50;99.90;;;;;;4996949;28;20807;-67
2021/08/30 10:12:42;;;;;;;15.43;13.83;;;17.50;99.90;;;;;;4996848;28;20446;-65
2021/08/30 10:15:11;;;;;;;16.57;14.97;;;17.50;99.90;;;;;;4997258;28;20453;-65
2021/08/30 10:17:47;;;;;;;15.43;13.93;;;17.40;99.90;;;;;;4996578;28;20462;-66
2021/08/30 10:20:17;;;;;;;16.53;15.00;;;17.40;99.90;;;;;;4996400;28;20529;-65
2021/08/30 10:22:56;;;;;;;16.93;15.47;;;17.40;99.90;;;;;;4996160;28;20470;-66
2021/08/30 10:25:23;;;;;;;16.93;15.43;;;17.40;99.90;;;;;;4996138;28;20513;-66
2021/08/30 10:27:57;;;;;;;15.87;14.43;;;17.40;99.90;;;;;;4996052;28;20457;-66
2021/08/30 10:30:52;;;;;;;16.37;14.97;;;17.40;99.90;;;;;;4995935;28;20456;-66
2021/08/30 10:33:24;;;;;;;19.43;17.43;;;17.30;99.90;;;;;;4996140;28;20456;-67
2021/08/30 10:35:51;;;;;;;19.37;17.47;;;17.30;99.90;;;;;;4996238;28;20449;-66
2021/08/30 10:38:20;;;;;;;19.43;17.73;;;17.40;99.90;;;;;;4995550;28;20461;-67
2021/08/30 10:40:50;;;;;;;16.73;15.00;;;17.40;99.90;;;;;;4996425;28;20501;-67
2021/08/30 10:43:19;;;;;;;17.03;15.53;;;17.40;99.90;;;;;;4999360;28;20466;-67
2021/08/30 10:45:56;;;;;;;14.37;13.00;;;17.30;99.90;;;;;;4998289;28;20450;-66
2021/08/30 10:48:33;;;;;;;14.30;13.03;;;17.30;99.90;;;;;;4998798;28;20473;-67
2021/08/30 10:51:00;;;;;;;14.17;12.97;;;17.20;99.90;;;;;;4997991;28;20495;-68
2021/08/30 10:53:27;;;;;;;13.23;12.13;;;17.10;99.90;;;;;;4997329;28;20450;-67
2021/08/30 10:55:56;;;;;;;14.37;13.00;;;17.20;99.90;;;;;;4996236;28;20458;-66
2021/08/30 10:58:24;;;;;;;12.13;11.03;;;17.30;99.90;;;;;;4995485;28;20458;-66
2021/08/30 11:00:52;;;;;;;11.70;10.50;;;17.30;99.90;;;;;;4995581;28;20489;-67
2021/08/30 11:03:29;;;;;;;11.47;10.50;;;17.50;99.90;;;;;;4995422;28;20478;-67
2021/08/30 11:06:06;;;;;;;12.30;11.30;;;17.60;99.90;;;;;;4995073;28;20496;-66
2021/08/30 11:08:34;;;;;;;10.93;10.03;;;17.60;99.90;;;;;;4995228;28;20924;-66
2021/08/30 11:11:15;;;;;;;10.90;10.10;;;17.60;99.90;;;;;;4995160;28;20479;-66
2021/08/30 11:13:43;;;;;;;11.57;10.67;;;17.80;99.90;;;;;;4995701;28;20446;-66
2021/08/30 11:16:19;;;;;;;11.57;10.53;;;18.00;99.90;;;;;;4995288;28;20457;-67
2021/08/30 11:18:56;;;;;;;12.50;11.40;;;18.20;99.90;;;;;;4994377;28;21032;-66
2021/08/30 11:21:34;;;;;;;15.63;11.43;;;18.40;99.90;;;;;;4995664;28;20554;-67
2021/08/30 11:24:00;;;;;;;12.30;11.20;;;18.40;99.90;;;;;;4995333;28;20453;-66
2021/08/30 11:26:28;;;;;;;12.60;11.30;;;18.60;99.90;;;;;;4995377;28;20461;-66
2021/08/30 11:28:56;;;;;;;12.80;11.70;;;18.60;99.90;;;;;;4995104;28;20454;-65
2021/08/30 11:31:23;;;;;;;12.00;10.90;;;18.80;99.90;;;;;;4994736;28;20474;-66
2021/08/30 11:33:50;;;;;;;12.93;11.70;;;18.80;99.90;;;;;;4995573;28;20458;-65
2021/08/30 11:36:18;;;;;;;12.47;11.37;;;18.90;99.90;;;;;;4995044;28;20469;-67
2021/08/30 11:38:53;;;;;;;13.10;12.10;;;18.80;99.90;;;;;;4994963;28;20453;-68
2021/08/30 11:41:20;;;;;;;13.70;12.50;;;18.70;99.90;;;;;;4994543;28;20477;-66
2021/08/30 11:43:47;;;;;;;13.70;12.60;;;18.50;99.90;;;;;;4994474;28;20536;-66
2021/08/30 11:46:14;;;;;;;13.53;12.33;;;18.30;99.90;;;;;;4994968;28;20458;-67
2021/08/30 11:48:41;;;;;;;14.80;13.50;;;18.30;99.90;;;;;;4995432;28;20799;-67
2021/08/30 11:51:08;;;;;;;15.17;13.77;;;18.20;99.90;;;;;;4994917;28;20832;-67
2021/08/30 11:53:37;;;;;;;15.50;14.10;;;18.20;99.90;;;;;;4994838;28;20576;-66
2021/08/30 11:56:04;;;;;;;15.03;13.73;;;18.20;99.90;;;;;;4995073;28;20574;-66
2021/08/30 11:58:34;;;;;;;15.03;13.50;;;18.00;99.90;;;;;;4994780;28;20460;-66
2021/08/30 12:01:02;;;;;;;14.47;13.17;;;17.90;99.90;;;;;;4994968;28;20992;-67
2021/08/30 12:03:29;;;;;;;16.67;15.17;;;17.80;99.90;;;;;;4994495;28;20486;-66
2021/08/30 12:05:55;;;;;;;16.00;14.60;;;17.60;99.90;;;;;;4994982;28;20464;-67
2021/08/30 12:08:23;;;;;;;15.67;14.37;;;17.60;99.90;;;;;;4994672;28;20492;-66
2021/08/30 12:10:51;;;;;;;14.70;13.33;;;17.50;99.90;;;;;;4994704;28;20528;-66
2021/08/30 12:13:33;;;;;;;14.70;13.40;;;17.50;99.90;;;;;;4994692;28;20491;-66
2021/08/30 12:15:59;;;;;;;15.93;13.30;;;17.50;99.90;;;;;;4994600;28;20449;-66
2021/08/30 12:18:26;;;;;;;15.00;13.50;;;17.40;99.90;;;;;;4994277;28;20960;-67
2021/08/30 12:20:59;;;;;;;14.70;13.50;;;17.40;99.90;;;;;;4994468;28;20485;-68
2021/08/30 12:23:26;;;;;;;15.60;14.30;;;17.30;99.90;;;;;;4995339;28;20540;-67
2021/08/30 12:25:54;;;;;;;16.13;14.63;;;17.30;99.90;;;;;;4994996;28;20453;-65
2021/08/30 12:28:22;;;;;;;17.13;15.47;;;17.30;99.90;;;;;;4994522;28;20794;-66
2021/08/30 12:30:50;;;;;;;17.67;15.77;;;17.20;99.90;;;;;;4997466;28;20470;-67
2021/08/30 12:33:20;;;;;;;17.20;15.60;;;17.20;99.90;;;;;;4998128;28;20938;-66
2021/08/30 12:35:48;;;;;;;17.43;15.73;;;17.20;99.90;;;;;;4998039;28;20481;-66
2021/08/30 12:38:17;;;;;;;17.33;15.83;;;17.10;99.90;;;;;;4998335;28;20457;-66
2021/08/30 12:40:46;;;;;;;16.60;15.10;;;17.00;99.90;;;;;;4997661;28;20473;-68
2021/08/30 12:43:15;;;;;;;18.03;16.30;;;17.10;99.90;;;;;;4997953;28;20478;-67
2021/08/30 12:45:42;;;;;;;15.93;14.43;;;17.20;99.90;;;;;;4997833;28;20468;-67
2021/08/30 12:48:09;;;;;;;15.60;14.23;;;17.30;99.90;;;;;;4997280;28;20829;-66
2021/08/30 12:50:37;;;;;;;14.87;13.27;;;17.50;99.90;;;;;;4997587;28;20477;-67
2021/08/30 12:53:04;;;;;;;14.43;13.20;;;17.60;99.90;;;;;;4997679;28;20458;-66
2021/08/30 12:55:31;;;;;;;14.93;13.60;;;17.80;99.90;;;;;;4997050;28;20523;-66
2021/08/30 12:57:57;;;;;;;14.03;12.90;;;17.90;99.90;;;;;;4997475;28;20461;-67
2021/08/30 13:00:26;;;;;;;14.27;13.00;;;18.00;99.90;;;;;;4997474;28;20929;-67
2021/08/30 13:02:53;;;;;;;18.40;13.63;;;18.00;99.90;;;;;;4997899;28;20472;-66
2021/08/30 13:05:22;;;;;;;14.27;12.97;;;18.00;99.90;;;;;;4997760;28;20461;-66
2021/08/30 13:07:50;;;;;;;15.90;13.03;;;17.90;99.90;;;;;;4997581;28;20459;-67
2021/08/30 13:10:18;;;;;;;14.63;13.30;;;17.90;99.90;;;;;;4997350;28;20828;-66
2021/08/30 13:12:45;;;;;;;13.97;12.67;;;17.90;99.90;;;;;;4997322;28;20454;-66
2021/08/30 13:15:13;;;;;;;16.40;14.63;;;17.90;99.90;;;;;;4997216;28;20453;-66
2021/08/30 13:17:41;;;;;;;16.27;14.67;;;17.90;99.90;;;;;;4997279;28;20457;-66
2021/08/30 13:20:09;;;;;;;16.47;13.83;;;18.10;99.90;;;;;;4997248;28;20458;-66
2021/08/30 13:22:36;;;;;;;15.20;13.90;;;18.20;99.90;;;;;;4996763;28;20849;-66
2021/08/30 13:25:04;;;;;;;14.20;13.00;;;18.20;99.90;;;;;;4997182;28;20461;-66
2021/08/30 13:27:32;;;;;;;11.97;11.07;;;18.20;99.90;;;;;;4997037;28;20450;-67
2021/08/30 13:29:59;;;;;;;12.47;11.33;;;18.20;99.90;;;;;;4997096;28;20461;-66
2021/08/30 13:32:25;;;;;;;11.40;10.40;;;18.20;99.90;;;;;;4997428;28;20874;-67
2021/08/30 13:34:53;;;;;;;11.00;10.00;;;18.10;99.90;;;;;;4996875;28;20454;-66
2021/08/30 13:37:20;;;;;;;10.50;8.97;;;17.90;99.90;;;;;;4997142;28;20469;-66
2021/08/30 13:39:47;;;;;;;9.90;9.10;;;17.90;99.90;;;;;;4997216;28;20631;-67
2021/08/30 13:42:14;;;;;;;10.97;10.07;;;17.90;99.90;;;;;;4995463;28;20481;-66
2021/08/30 13:44:41;;;;;;;9.87;8.97;;;18.00;99.90;;;;;;5001489;28;20456;-66
2021/08/30 13:47:08;;;;;;;9.03;8.17;;;17.80;99.90;;;;;;5006001;28;20449;-66
2021/08/30 13:49:34;;;;;;;10.00;9.20;;;17.70;99.90;;;;;;5005756;28;20442;-66
2021/08/30 13:52:05;;;;;;;10.73;9.83;;;17.70;99.90;;;;;;4999046;28;20489;-67
2021/08/30 13:54:32;;;;;;;9.40;8.50;;;17.70;99.90;;;;;;4997692;28;20438;-66
2021/08/30 13:56:58;;;;;;;9.20;8.50;;;17.80;99.90;;;;;;4996744;28;20454;-66
2021/08/30 13:59:25;;;;;;;9.63;8.83;;;17.80;99.90;;;;;;4997404;28;20457;-66
2021/08/30 14:01:52;;;;;;;8.90;8.13;;;17.80;99.90;;;;;;4996579;28;20488;-66
2021/08/30 14:04:19;;;;;;;8.63;7.83;;;18.00;99.90;;;;;;4996827;28;20500;-67
2021/08/30 14:06:45;;;;;;;8.13;7.43;;;18.30;99.90;;;;;;4996606;28;20449;-67
2021/08/30 14:09:14;;;;;;;7.53;7.03;;;18.60;99.90;;;;;;4996975;28;20785;-66
2021/08/30 14:11:40;;;;;;;6.40;6.00;;;18.80;99.90;;;;;;4997170;28;20484;-66
2021/08/30 14:14:09;;;;;;;6.40;6.00;;;19.00;99.90;;;;;;4998352;28;20937;-66
2021/08/30 14:16:38;;;;;;;7.67;6.97;;;19.10;99.90;;;;;;4997030;28;20815;-67
2021/08/30 14:19:05;;;;;;;6.50;5.90;;;19.10;99.90;;;;;;4998817;28;20454;-66
2021/08/30 14:21:32;;;;;;;8.07;7.47;;;19.10;99.90;;;;;;4997050;28;20477;-66
2021/08/30 14:23:58;;;;;;;7.10;6.60;;;19.20;99.90;;;;;;4996953;28;20473;-67
2021/08/30 14:26:27;;;;;;;8.00;7.40;;;19.30;99.90;;;;;;5002441;28;20454;-66
2021/08/30 14:28:54;;;;;;;8.70;7.63;;;19.50;99.90;;;;;;5003607;28;20449;-67
2021/08/30 14:31:21;;;;;;;8.27;7.67;;;19.70;99.90;;;;;;5005658;28;20481;-66
2021/08/30 14:33:48;;;;;;;6.83;6.33;;;19.70;99.90;;;;;;5005176;28;20783;-68
2021/08/30 14:36:15;;;;;;;7.70;7.00;;;19.70;99.90;;;;;;5003901;28;20437;-67
2021/08/30 14:38:41;;;;;;;10.00;8.57;;;19.70;99.90;;;;;;5016299;28;20449;-67
2021/08/30 14:41:08;;;;;;;8.50;7.83;;;19.20;99.90;;;;;;5003136;28;20473;-67
2021/08/30 14:43:36;;;;;;;7.93;7.43;;;19.00;99.90;;;;;;4996817;28;20557;-67
2021/08/30 14:46:03;;;;;;;8.67;8.07;;;18.80;99.90;;;;;;4996426;28;20458;-67
2021/08/30 14:48:30;;;;;;;10.73;9.70;;;18.60;99.90;;;;;;4996209;28;20945;-67
2021/08/30 14:50:57;;;;;;;9.17;8.47;;;18.40;99.90;;;;;;4996564;28;20516;-66
2021/08/30 14:53:24;;;;;;;9.27;8.57;;;18.40;99.90;;;;;;4995780;28;20937;-66
2021/08/30 14:55:51;;;;;;;9.53;8.83;;;18.50;99.90;;;;;;4996205;28;20449;-66
2021/08/30 14:58:18;;;;;;;9.20;8.40;;;18.50;99.90;;;;;;4996447;28;20454;-66
2021/08/30 15:00:48;;;;;;;9.40;8.60;;;18.40;99.90;;;;;;4995330;28;20482;-66
2021/08/30 15:03:14;;;;;;;8.70;7.90;;;18.50;99.90;;;;;;4996361;28;20462;-67
2021/08/30 15:05:42;;;;;;;7.77;7.17;;;18.70;99.90;;;;;;4996134;28;20453;-65
2021/08/30 15:08:11;;;;;;;8.03;7.43;;;18.80;99.90;;;;;;4995875;28;20508;-66
2021/08/30 15:10:38;;;;;;;8.50;7.63;;;19.00;99.90;;;;;;4995591;28;20505;-67
2021/08/30 15:13:05;;;;;;;8.53;7.83;;;19.00;99.90;;;;;;4995741;28;20442;-67
2021/08/30 15:15:34;;;;;;;7.87;7.27;;;19.10;99.90;;;;;;4995479;28;20449;-67
2021/08/30 15:18:04;;;;;;;8.73;7.80;;;19.10;99.90;;;;;;4995952;28;20488;-66
2021/08/30 15:20:32;;;;;;;9.87;9.07;;;19.10;99.90;;;;;;4999570;28;20442;-66
2021/08/30 15:23:00;;;;;;;8.77;8.17;;;19.10;99.90;;;;;;4998317;28;20474;-66
2021/08/30 15:25:28;;;;;;;9.60;8.80;;;19.20;99.90;;;;;;4995719;28;20479;-66
2021/08/30 15:27:55;;;;;;;11.93;8.40;;;19.20;99.90;;;;;;4995533;28;20480;-66
2021/08/30 15:30:23;;;;;;;9.17;8.20;;;19.20;99.90;;;;;;4994709;28;20454;-65
2021/08/30 15:32:50;;;;;;;9.50;8.60;;;19.10;99.90;;;;;;4994964;28;20450;-66
2021/08/30 15:35:19;;;;;;;10.43;9.43;;;19.10;99.90;;;;;;4995307;28;20828;-66
2021/08/30 15:37:46;;;;;;;9.40;8.60;;;19.20;99.90;;;;;;4995737;28;20458;-66
2021/08/30 15:40:13;;;;;;;10.47;9.60;;;19.40;99.90;;;;;;4995169;28;20481;-66
2021/08/30 15:42:40;;;;;;;10.00;9.20;;;19.50;99.90;;;;;;4994604;28;20502;-66
2021/08/30 15:45:08;;;;;;;9.93;9.03;;;19.60;99.90;;;;;;4995274;28;20478;-66
2021/08/30 15:47:35;;;;;;;11.10;10.03;;;19.70;99.90;;;;;;4995332;28;20481;-66
2021/08/30 15:50:02;;;;;;;11.07;10.03;;;19.80;99.90;;;;;;4994825;28;20956;-66
2021/08/30 15:52:30;;;;;;;10.80;9.80;;;19.90;99.90;;;;;;4995198;28;20482;-66
2021/08/30 15:54:57;;;;;;;11.57;10.70;;;19.90;99.90;;;;;;4995072;28;20450;-65
2021/08/30 15:57:23;;;;;;;10.50;9.70;;;19.80;99.90;;;;;;4994916;28;20453;-66
2021/08/30 15:59:50;;;;;;;10.03;9.30;;;19.80;99.90;;;;;;4994791;28;20456;-65
2021/08/30 16:02:17;;;;;;;10.30;9.50;;;19.80;99.90;;;;;;4994920;28;21019;-66
2021/08/30 16:04:44;;;;;;;10.73;9.93;;;19.60;99.90;;;;;;4996121;28;20838;-65
2021/08/30 16:07:10;;;;;;;10.17;9.27;;;19.60;99.90;;;;;;4999083;28;20458;-67
2021/08/30 16:09:39;;;;;;;11.77;10.23;;;19.50;99.90;;;;;;4999043;28;20454;-65
2021/08/30 16:12:06;;;;;;;10.97;9.97;;;19.40;99.90;;;;;;4998597;28;20478;-66
2021/08/30 16:14:35;;;;;;;10.43;9.63;;;19.30;99.90;;;;;;4999469;28;20786;-66
2021/08/30 16:17:02;;;;;;;10.63;9.73;;;19.30;99.90;;;;;;4998900;28;20484;-66
2021/08/30 16:19:30;;;;;;;10.13;9.33;;;19.10;99.90;;;;;;4998656;28;20457;-66
2021/08/30 16:21:57;;;;;;;9.20;8.40;;;19.00;99.90;;;;;;4998428;28;20531;-66
2021/08/30 16:24:27;;;;;;;10.63;9.83;;;18.90;99.90;;;;;;4998059;28;20499;-66
2021/08/30 16:26:55;;;;;;;10.77;9.87;;;18.90;99.90;;;;;;4998374;28;20458;-67
2021/08/30 16:29:23;;;;;;;10.67;9.87;;;18.90;99.90;;;;;;4998153;28;20856;-66
2021/08/30 16:31:51;;;;;;;12.43;9.47;;;18.90;99.90;;;;;;4998313;28;20483;-67
2021/08/30 16:34:20;;;;;;;10.80;10.00;;;18.80;99.90;;;;;;4998369;28;20476;-68